sensor_id;sensor_type;location;lat;lon;timestamp;temperature;humidity
21759;DHT22;11041;50.854;20.580;2022-10-17T00:00:53;10.80;99.90
21759;DHT22;11041;50.854;20.580;2022-10-17T00:03:31;10.80;99.90
21759;DHT22;11041;50.854;20.580;2022-10-17T00:05:58;10.70;99.90
21759;DHT22;11041;50.854;20.580;2022-10-17T00:08:25;10.70;99.90
21759;DHT22;11041;50.854;20.580;2022-10-17T00:10:57;10.70;99.90
21759;DHT22;11041;50.854;20.580;2022-10-17T00:13:29;10.70;99.90
21759;DHT22;11041;50.854;20.580;2022-10-17T00:15:56;10.70;99.90
21759;DHT22;11041;50.854;20.580;2022-10-17T00:18:23;10.70;99.90
21759;DHT22;11041;50.854;20.580;2022-10-17T00:20:50;10.70;99.90
21759;DHT22;11041;50.854;20.580;2022-10-17T00:23:17;10.70;99.90
21759;DHT22;11041;50.854;20.580;2022-10-17T00:25:44;10.70;99.90
21759;DHT22;11041;50.854;20.580;2022-10-17T00:28:12;10.50;99.90
21759;DHT22;11041;50.854;20.580;2022-10-17T00:30:40;10.60;99.90
21759;DHT22;11041;50.854;20.580;2022-10-17T00:33:06;10.60;99.90
21759;DHT22;11041;50.854;20.580;2022-10-17T00:35:33;10.60;99.90
21759;DHT22;11041;50.854;20.580;2022-10-17T00:37:59;10.50;99.90
21759;DHT22;11041;50.854;20.580;2022-10-17T00:40:26;10.60;99.90
21759;DHT22;11041;50.854;20.580;2022-10-17T00:42:52;10.60;99.90
21759;DHT22;11041;50.854;20.580;2022-10-17T00:45:25;10.50;99.90
21759;DHT22;11041;50.854;20.580;2022-10-17T00:48:02;10.60;99.90
21759;DHT22;11041;50.854;20.580;2022-10-17T00:50:34;10.60;99.90
21759;DHT22;11041;50.854;20.580;2022-10-17T00:53:05;10.50;99.90
21759;DHT22;11041;50.854;20.580;2022-10-17T00:55:36;10.50;99.90
21759;DHT22;11041;50.854;20.580;2022-10-17T00:58:09;10.50;99.90
21759;DHT22;11041;50.854;20.580;2022-10-17T01:00:36;10.50;99.90
21759;DHT22;11041;50.854;20.580;2022-10-17T01:03:03;10.40;99.90
21759;DHT22;11041;50.854;20.580;2022-10-17T01:05:29;10.40;99.90
21759;DHT22;11041;50.854;20.580;2022-10-17T01:07:56;10.40;99.90
21759;DHT22;11041;50.854;20.580;2022-10-17T01:10:29;10.50;99.90
21759;DHT22;11041;50.854;20.580;2022-10-17T01:13:20;10.40;99.90
21759;DHT22;11041;50.854;20.580;2022-10-17T01:16:18;10.40;99.90
21759;DHT22;11041;50.854;20.580;2022-10-17T01:19:29;10.40;99.90
21759;DHT22;11041;50.854;20.580;2022-10-17T01:32:00;10.30;99.90
21759;DHT22;11041;50.854;20.580;2022-10-17T01:34:57;10.30;99.90
21759;DHT22;11041;50.854;20.580;2022-10-17T01:37:46;10.30;99.90
21759;DHT22;11041;50.854;20.580;2022-10-17T01:40:33;10.20;99.90
21759;DHT22;11041;50.854;20.580;2022-10-17T01:49:09;10.10;99.90
21759;DHT22;11041;50.854;20.580;2022-10-17T01:51:55;10.10;99.90
21759;DHT22;11041;50.854;20.580;2022-10-17T01:54:41;10.10;99.90
21759;DHT22;11041;50.854;20.580;2022-10-17T01:57:25;10.00;99.90
21759;DHT22;11041;50.854;20.580;2022-10-17T01:59:56;10.00;99.90
21759;DHT22;11041;50.854;20.580;2022-10-17T02:02:24;10.00;99.90
21759;DHT22;11041;50.854;20.580;2022-10-17T02:04:54;10.00;99.90
21759;DHT22;11041;50.854;20.580;2022-10-17T02:07:23;9.90;99.90
21759;DHT22;11041;50.854;20.580;2022-10-17T02:09:49;9.90;99.90
21759;DHT22;11041;50.854;20.580;2022-10-17T02:18:58;10.00;99.90
21759;DHT22;11041;50.854;20.580;2022-10-17T02:24:46;9.90;99.90
21759;DHT22;11041;50.854;20.580;2022-10-17T02:30:15;9.90;99.90
21759;DHT22;11041;50.854;20.580;2022-10-17T02:32:55;9.90;99.90
21759;DHT22;11041;50.854;20.580;2022-10-17T02:35:34;9.90;99.90
21759;DHT22;11041;50.854;20.580;2022-10-17T02:38:05;9.90;99.90
21759;DHT22;11041;50.854;20.580;2022-10-17T02:40:36;9.80;99.90
21759;DHT22;11041;50.854;20.580;2022-10-17T02:43:05;9.80;99.90
21759;DHT22;11041;50.854;20.580;2022-10-17T02:45:33;9.70;99.90
21759;DHT22;11041;50.854;20.580;2022-10-17T02:48:11;9.70;99.90
21759;DHT22;11041;50.854;20.580;2022-10-17T02:56:37;9.60;99.90
21759;DHT22;11041;50.854;20.580;2022-10-17T02:59:15;9.70;99.90
21759;DHT22;11041;50.854;20.580;2022-10-17T03:01:44;9.70;99.90
21759;DHT22;11041;50.854;20.580;2022-10-17T03:04:13;9.70;99.90
21759;DHT22;11041;50.854;20.580;2022-10-17T03:06:40;9.60;99.90
21759;DHT22;11041;50.854;20.580;2022-10-17T03:09:07;9.60;99.90
21759;DHT22;11041;50.854;20.580;2022-10-17T03:11:34;9.60;99.90
21759;DHT22;11041;50.854;20.580;2022-10-17T03:14:01;9.60;99.90
21759;DHT22;11041;50.854;20.580;2022-10-17T03:16:27;9.50;99.90
21759;DHT22;11041;50.854;20.580;2022-10-17T03:18:54;9.50;99.90
21759;DHT22;11041;50.854;20.580;2022-10-17T03:21:21;9.50;99.90
21759;DHT22;11041;50.854;20.580;2022-10-17T03:23:48;9.50;99.90
21759;DHT22;11041;50.854;20.580;2022-10-17T03:26:14;9.50;99.90
21759;DHT22;11041;50.854;20.580;2022-10-17T03:28:41;9.50;99.90
21759;DHT22;11041;50.854;20.580;2022-10-17T03:31:13;9.40;99.90
21759;DHT22;11041;50.854;20.580;2022-10-17T03:33:42;9.50;99.90
21759;DHT22;11041;50.854;20.580;2022-10-17T03:36:10;9.40;99.90
21759;DHT22;11041;50.854;20.580;2022-10-17T03:38:39;9.40;99.90
21759;DHT22;11041;50.854;20.580;2022-10-17T03:41:07;9.40;99.90
21759;DHT22;11041;50.854;20.580;2022-10-17T03:43:34;9.40;99.90
21759;DHT22;11041;50.854;20.580;2022-10-17T03:46:02;9.40;99.90
21759;DHT22;11041;50.854;20.580;2022-10-17T03:48:30;9.40;99.90
21759;DHT22;11041;50.854;20.580;2022-10-17T03:51:15;9.40;99.90
21759;DHT22;11041;50.854;20.580;2022-10-17T03:53:42;9.40;99.90
21759;DHT22;11041;50.854;20.580;2022-10-17T03:56:10;9.40;99.90
21759;DHT22;11041;50.854;20.580;2022-10-17T03:58:38;9.40;99.90
21759;DHT22;11041;50.854;20.580;2022-10-17T04:01:08;9.40;99.90
21759;DHT22;11041;50.854;20.580;2022-10-17T04:03:36;9.40;99.90
21759;DHT22;11041;50.854;20.580;2022-10-17T04:06:04;9.50;99.90
21759;DHT22;11041;50.854;20.580;2022-10-17T04:08:32;9.40;99.90
21759;DHT22;11041;50.854;20.580;2022-10-17T04:11:01;9.40;99.90
21759;DHT22;11041;50.854;20.580;2022-10-17T04:13:31;9.40;99.90
21759;DHT22;11041;50.854;20.580;2022-10-17T04:16:04;9.30;99.90
21759;DHT22;11041;50.854;20.580;2022-10-17T04:18:33;9.30;99.90
21759;DHT22;11041;50.854;20.580;2022-10-17T04:21:03;9.40;99.90
21759;DHT22;11041;50.854;20.580;2022-10-17T04:23:31;9.40;99.90
21759;DHT22;11041;50.854;20.580;2022-10-17T04:25:59;9.40;99.90
21759;DHT22;11041;50.854;20.580;2022-10-17T04:28:29;9.40;99.90
21759;DHT22;11041;50.854;20.580;2022-10-17T04:31:02;9.40;99.90
21759;DHT22;11041;50.854;20.580;2022-10-17T04:33:35;9.40;99.90
21759;DHT22;11041;50.854;20.580;2022-10-17T04:36:03;9.40;99.90
21759;DHT22;11041;50.854;20.580;2022-10-17T04:38:32;9.40;99.90
21759;DHT22;11041;50.854;20.580;2022-10-17T04:41:00;9.40;99.90
21759;DHT22;11041;50.854;20.580;2022-10-17T04:43:31;9.40;99.90
21759;DHT22;11041;50.854;20.580;2022-10-17T04:46:00;9.50;99.90
21759;DHT22;11041;50.854;20.580;2022-10-17T04:48:30;9.40;99.90
21759;DHT22;11041;50.854;20.580;2022-10-17T04:50:58;9.40;99.90
21759;DHT22;11041;50.854;20.580;2022-10-17T04:53:27;9.40;99.90
21759;DHT22;11041;50.854;20.580;2022-10-17T04:55:56;9.40;99.90
21759;DHT22;11041;50.854;20.580;2022-10-17T04:58:23;9.30;99.90
21759;DHT22;11041;50.854;20.580;2022-10-17T05:00:50;9.30;99.90
21759;DHT22;11041;50.854;20.580;2022-10-17T05:03:17;9.30;99.90
21759;DHT22;11041;50.854;20.580;2022-10-17T05:05:43;9.30;99.90
21759;DHT22;11041;50.854;20.580;2022-10-17T05:08:11;9.20;99.90
21759;DHT22;11041;50.854;20.580;2022-10-17T05:10:40;9.20;99.90
21759;DHT22;11041;50.854;20.580;2022-10-17T05:13:10;9.20;99.90
21759;DHT22;11041;50.854;20.580;2022-10-17T05:15:37;9.20;99.90
21759;DHT22;11041;50.854;20.580;2022-10-17T05:18:05;9.20;99.90
21759;DHT22;11041;50.854;20.580;2022-10-17T05:20:32;9.20;99.90
21759;DHT22;11041;50.854;20.580;2022-10-17T05:22:59;9.20;99.90
21759;DHT22;11041;50.854;20.580;2022-10-17T05:25:26;9.20;99.90
21759;DHT22;11041;50.854;20.580;2022-10-17T05:27:53;9.20;99.90
21759;DHT22;11041;50.854;20.580;2022-10-17T05:30:20;9.20;99.90
21759;DHT22;11041;50.854;20.580;2022-10-17T05:32:46;9.30;99.90
21759;DHT22;11041;50.854;20.580;2022-10-17T05:35:13;9.30;99.90
21759;DHT22;11041;50.854;20.580;2022-10-17T05:37:39;9.30;99.90
21759;DHT22;11041;50.854;20.580;2022-10-17T05:40:06;9.40;99.90
21759;DHT22;11041;50.854;20.580;2022-10-17T05:42:33;9.40;99.90
21759;DHT22;11041;50.854;20.580;2022-10-17T05:45:00;9.50;99.90
21759;DHT22;11041;50.854;20.580;2022-10-17T05:47:26;9.50;99.90
21759;DHT22;11041;50.854;20.580;2022-10-17T05:49:53;9.50;99.90
21759;DHT22;11041;50.854;20.580;2022-10-17T05:52:19;9.50;99.90
21759;DHT22;11041;50.854;20.580;2022-10-17T05:54:46;9.60;99.90
21759;DHT22;11041;50.854;20.580;2022-10-17T05:57:12;9.60;99.90
21759;DHT22;11041;50.854;20.580;2022-10-17T05:59:39;9.60;99.90
21759;DHT22;11041;50.854;20.580;2022-10-17T06:02:05;9.60;99.90
21759;DHT22;11041;50.854;20.580;2022-10-17T06:04:32;9.70;99.90
21759;DHT22;11041;50.854;20.580;2022-10-17T06:06:59;9.70;99.90
21759;DHT22;11041;50.854;20.580;2022-10-17T06:09:25;9.80;99.90
21759;DHT22;11041;50.854;20.580;2022-10-17T06:11:52;9.80;99.90
21759;DHT22;11041;50.854;20.580;2022-10-17T06:14:18;9.90;99.90
21759;DHT22;11041;50.854;20.580;2022-10-17T06:16:45;10.00;99.90
21759;DHT22;11041;50.854;20.580;2022-10-17T06:19:11;10.00;99.90
21759;DHT22;11041;50.854;20.580;2022-10-17T06:21:38;10.10;99.90
21759;DHT22;11041;50.854;20.580;2022-10-17T06:24:05;10.20;99.90
21759;DHT22;11041;50.854;20.580;2022-10-17T06:26:35;10.30;99.90
21759;DHT22;11041;50.854;20.580;2022-10-17T06:29:02;10.40;99.90
21759;DHT22;11041;50.854;20.580;2022-10-17T06:31:28;10.50;99.90
21759;DHT22;11041;50.854;20.580;2022-10-17T06:33:55;10.60;99.90
21759;DHT22;11041;50.854;20.580;2022-10-17T06:36:22;10.70;99.90
21759;DHT22;11041;50.854;20.580;2022-10-17T06:38:49;10.80;99.90
21759;DHT22;11041;50.854;20.580;2022-10-17T06:41:16;10.90;99.90
21759;DHT22;11041;50.854;20.580;2022-10-17T06:43:45;11.00;99.90
21759;DHT22;11041;50.854;20.580;2022-10-17T06:46:17;11.10;99.90
21759;DHT22;11041;50.854;20.580;2022-10-17T06:48:44;11.20;99.90
21759;DHT22;11041;50.854;20.580;2022-10-17T06:51:11;11.40;99.90
21759;DHT22;11041;50.854;20.580;2022-10-17T06:53:39;11.40;99.90
21759;DHT22;11041;50.854;20.580;2022-10-17T06:56:07;11.50;99.90
21759;DHT22;11041;50.854;20.580;2022-10-17T06:58:37;11.60;99.90
21759;DHT22;11041;50.854;20.580;2022-10-17T07:01:12;11.70;99.90
21759;DHT22;11041;50.854;20.580;2022-10-17T07:03:39;11.80;99.90
21759;DHT22;11041;50.854;20.580;2022-10-17T07:06:07;11.90;99.90
21759;DHT22;11041;50.854;20.580;2022-10-17T07:08:36;12.00;99.90
21759;DHT22;11041;50.854;20.580;2022-10-17T07:11:14;12.10;99.90
21759;DHT22;11041;50.854;20.580;2022-10-17T07:13:42;12.20;99.90
21759;DHT22;11041;50.854;20.580;2022-10-17T07:16:09;12.30;99.90
21759;DHT22;11041;50.854;20.580;2022-10-17T07:18:36;12.40;99.90
21759;DHT22;11041;50.854;20.580;2022-10-17T07:21:04;12.60;99.90
21759;DHT22;11041;50.854;20.580;2022-10-17T07:23:34;12.70;99.90
21759;DHT22;11041;50.854;20.580;2022-10-17T07:26:08;12.80;99.90
21759;DHT22;11041;50.854;20.580;2022-10-17T07:28:38;12.90;99.90
21759;DHT22;11041;50.854;20.580;2022-10-17T07:31:09;13.00;99.90
21759;DHT22;11041;50.854;20.580;2022-10-17T07:33:43;13.10;99.90
21759;DHT22;11041;50.854;20.580;2022-10-17T07:36:12;13.20;99.90
21759;DHT22;11041;50.854;20.580;2022-10-17T07:38:39;13.40;99.90
21759;DHT22;11041;50.854;20.580;2022-10-17T07:41:09;13.60;99.90
21759;DHT22;11041;50.854;20.580;2022-10-17T07:43:37;13.70;99.90
21759;DHT22;11041;50.854;20.580;2022-10-17T07:46:04;13.70;99.90
21759;DHT22;11041;50.854;20.580;2022-10-17T07:48:31;13.80;99.90
21759;DHT22;11041;50.854;20.580;2022-10-17T07:51:02;13.90;99.90
21759;DHT22;11041;50.854;20.580;2022-10-17T07:53:30;14.00;99.90
21759;DHT22;11041;50.854;20.580;2022-10-17T07:55:57;14.20;99.90
21759;DHT22;11041;50.854;20.580;2022-10-17T07:58:24;14.30;99.90
21759;DHT22;11041;50.854;20.580;2022-10-17T08:00:51;14.40;99.90
21759;DHT22;11041;50.854;20.580;2022-10-17T08:03:17;14.50;99.90
21759;DHT22;11041;50.854;20.580;2022-10-17T08:05:44;14.60;99.90
21759;DHT22;11041;50.854;20.580;2022-10-17T08:08:10;14.70;99.90
21759;DHT22;11041;50.854;20.580;2022-10-17T08:10:37;14.80;99.90
21759;DHT22;11041;50.854;20.580;2022-10-17T08:13:04;14.90;99.90
21759;DHT22;11041;50.854;20.580;2022-10-17T08:15:30;15.20;99.90
21759;DHT22;11041;50.854;20.580;2022-10-17T08:17:57;15.30;99.90
21759;DHT22;11041;50.854;20.580;2022-10-17T08:20:24;15.40;99.90
21759;DHT22;11041;50.854;20.580;2022-10-17T08:22:54;15.60;99.90
21759;DHT22;11041;50.854;20.580;2022-10-17T08:25:21;15.70;99.90
21759;DHT22;11041;50.854;20.580;2022-10-17T08:27:48;15.90;99.90
21759;DHT22;11041;50.854;20.580;2022-10-17T08:30:16;16.10;99.90
21759;DHT22;11041;50.854;20.580;2022-10-17T08:32:42;16.20;99.90
21759;DHT22;11041;50.854;20.580;2022-10-17T08:35:09;16.40;99.90
21759;DHT22;11041;50.854;20.580;2022-10-17T08:37:36;16.40;99.90
21759;DHT22;11041;50.854;20.580;2022-10-17T08:40:03;16.50;99.90
21759;DHT22;11041;50.854;20.580;2022-10-17T08:45:40;16.60;99.90
21759;DHT22;11041;50.854;20.580;2022-10-17T08:48:19;16.60;99.90
21759;DHT22;11041;50.854;20.580;2022-10-17T08:50:53;16.70;99.90
21759;DHT22;11041;50.854;20.580;2022-10-17T08:53:40;16.80;99.90
21759;DHT22;11041;50.854;20.580;2022-10-17T08:56:25;16.80;99.90
21759;DHT22;11041;50.854;20.580;2022-10-17T08:58:54;16.90;99.90
21759;DHT22;11041;50.854;20.580;2022-10-17T09:07:37;17.10;99.90
21759;DHT22;11041;50.854;20.580;2022-10-17T09:19:35;17.60;99.90
21759;DHT22;11041;50.854;20.580;2022-10-17T09:22:09;17.70;99.90
21759;DHT22;11041;50.854;20.580;2022-10-17T09:24:48;17.60;99.90
21759;DHT22;11041;50.854;20.580;2022-10-17T09:27:25;17.80;99.90
21759;DHT22;11041;50.854;20.580;2022-10-17T09:33:27;18.00;99.90
21759;DHT22;11041;50.854;20.580;2022-10-17T09:36:22;17.90;99.90
21759;DHT22;11041;50.854;20.580;2022-10-17T09:39:19;18.00;99.90
21759;DHT22;11041;50.854;20.580;2022-10-17T09:41:53;18.00;99.90
21759;DHT22;11041;50.854;20.580;2022-10-17T09:45:23;18.10;99.90
21759;DHT22;11041;50.854;20.580;2022-10-17T09:50:44;18.50;99.90
21759;DHT22;11041;50.854;20.580;2022-10-17T09:53:15;18.60;99.90
21759;DHT22;11041;50.854;20.580;2022-10-17T09:55:53;18.70;99.90
21759;DHT22;11041;50.854;20.580;2022-10-17T09:58:43;18.60;99.90
21759;DHT22;11041;50.854;20.580;2022-10-17T10:01:32;18.70;99.90
21759;DHT22;11041;50.854;20.580;2022-10-17T10:04:12;18.70;99.90
21759;DHT22;11041;50.854;20.580;2022-10-17T10:09:32;19.30;99.90
21759;DHT22;11041;50.854;20.580;2022-10-17T10:12:05;19.30;99.90
21759;DHT22;11041;50.854;20.580;2022-10-17T10:14:41;19.30;99.90
21759;DHT22;11041;50.854;20.580;2022-10-17T10:19:55;19.30;99.90
21759;DHT22;11041;50.854;20.580;2022-10-17T10:22:22;19.50;99.90
21759;DHT22;11041;50.854;20.580;2022-10-17T10:25:15;19.60;99.90
21759;DHT22;11041;50.854;20.580;2022-10-17T10:27:43;19.80;99.90
21759;DHT22;11041;50.854;20.580;2022-10-17T10:30:23;19.90;99.90
21759;DHT22;11041;50.854;20.580;2022-10-17T10:32:56;20.00;99.90
21759;DHT22;11041;50.854;20.580;2022-10-17T10:35:34;20.00;99.90
21759;DHT22;11041;50.854;20.580;2022-10-17T10:38:07;19.90;99.90
21759;DHT22;11041;50.854;20.580;2022-10-17T10:40:46;20.10;99.90
21759;DHT22;11041;50.854;20.580;2022-10-17T10:45:53;20.10;99.90
21759;DHT22;11041;50.854;20.580;2022-10-17T10:48:33;20.20;99.90
21759;DHT22;11041;50.854;20.580;2022-10-17T10:51:11;20.30;99.90
21759;DHT22;11041;50.854;20.580;2022-10-17T10:53:46;20.40;99.90
21759;DHT22;11041;50.854;20.580;2022-10-17T10:56:19;20.40;99.90
21759;DHT22;11041;50.854;20.580;2022-10-17T11:07:04;20.40;99.90
21759;DHT22;11041;50.854;20.580;2022-10-17T11:09:49;20.50;99.90
21759;DHT22;11041;50.854;20.580;2022-10-17T11:12:27;20.60;99.90
21759;DHT22;11041;50.854;20.580;2022-10-17T11:15:19;20.70;99.90
21759;DHT22;11041;50.854;20.580;2022-10-17T11:23:50;21.10;99.90
21759;DHT22;11041;50.854;20.580;2022-10-17T11:26:30;21.30;99.90
21759;DHT22;11041;50.854;20.580;2022-10-17T11:29:03;21.30;99.90
21759;DHT22;11041;50.854;20.580;2022-10-17T11:31:40;21.30;99.90
21759;DHT22;11041;50.854;20.580;2022-10-17T11:34:26;21.20;99.90
21759;DHT22;11041;50.854;20.580;2022-10-17T11:37:00;21.20;99.90
21759;DHT22;11041;50.854;20.580;2022-10-17T11:42:24;21.30;99.90
21759;DHT22;11041;50.854;20.580;2022-10-17T11:45:08;21.30;99.90
21759;DHT22;11041;50.854;20.580;2022-10-17T11:47:48;21.70;99.90
21759;DHT22;11041;50.854;20.580;2022-10-17T11:50:32;21.80;99.90
21759;DHT22;11041;50.854;20.580;2022-10-17T11:53:10;21.90;99.90
21759;DHT22;11041;50.854;20.580;2022-10-17T11:55:40;21.80;99.90
21759;DHT22;11041;50.854;20.580;2022-10-17T12:01:38;22.00;99.90
21759;DHT22;11041;50.854;20.580;2022-10-17T12:22:05;22.00;99.90
21759;DHT22;11041;50.854;20.580;2022-10-17T12:25:04;22.00;99.90
21759;DHT22;11041;50.854;20.580;2022-10-17T12:27:42;21.90;99.90
21759;DHT22;11041;50.854;20.580;2022-10-17T12:33:09;21.80;99.90
21759;DHT22;11041;50.854;20.580;2022-10-17T12:35:49;22.00;99.90
21759;DHT22;11041;50.854;20.580;2022-10-17T12:38:18;21.90;99.90
21759;DHT22;11041;50.854;20.580;2022-10-17T12:40:49;21.80;99.90
21759;DHT22;11041;50.854;20.580;2022-10-17T12:43:34;21.80;99.90
21759;DHT22;11041;50.854;20.580;2022-10-17T12:55:11;21.80;99.90
21759;DHT22;11041;50.854;20.580;2022-10-17T12:57:56;21.80;99.90
21759;DHT22;11041;50.854;20.580;2022-10-17T13:00:31;21.80;99.90
21759;DHT22;11041;50.854;20.580;2022-10-17T13:03:21;21.80;99.90
21759;DHT22;11041;50.854;20.580;2022-10-17T13:06:02;21.60;99.90
21759;DHT22;11041;50.854;20.580;2022-10-17T13:08:43;21.60;99.90
21759;DHT22;11041;50.854;20.580;2022-10-17T13:11:12;21.60;99.90
21759;DHT22;11041;50.854;20.580;2022-10-17T13:13:55;21.60;99.90
21759;DHT22;11041;50.854;20.580;2022-10-17T13:16:37;21.50;99.90
21759;DHT22;11041;50.854;20.580;2022-10-17T13:19:14;21.40;99.90
21759;DHT22;11041;50.854;20.580;2022-10-17T13:21:52;21.40;99.90
21759;DHT22;11041;50.854;20.580;2022-10-17T13:24:28;21.30;99.90
21759;DHT22;11041;50.854;20.580;2022-10-17T13:26:59;21.40;99.90
21759;DHT22;11041;50.854;20.580;2022-10-17T13:29:28;21.40;99.90
21759;DHT22;11041;50.854;20.580;2022-10-17T13:32:02;21.30;99.90
21759;DHT22;11041;50.854;20.580;2022-10-17T13:34:32;21.40;99.90
21759;DHT22;11041;50.854;20.580;2022-10-17T13:37:01;21.40;99.90
21759;DHT22;11041;50.854;20.580;2022-10-17T13:39:37;21.30;99.90
21759;DHT22;11041;50.854;20.580;2022-10-17T13:42:35;21.20;99.90
21759;DHT22;11041;50.854;20.580;2022-10-17T13:45:06;21.30;99.90
21759;DHT22;11041;50.854;20.580;2022-10-17T13:47:45;21.20;99.90
21759;DHT22;11041;50.854;20.580;2022-10-17T13:50:39;21.20;99.90
21759;DHT22;11041;50.854;20.580;2022-10-17T13:56:19;21.00;99.90
21759;DHT22;11041;50.854;20.580;2022-10-17T13:58:59;21.00;99.90
21759;DHT22;11041;50.854;20.580;2022-10-17T14:01:30;20.90;99.90
21759;DHT22;11041;50.854;20.580;2022-10-17T14:03:57;20.80;99.90
21759;DHT22;11041;50.854;20.580;2022-10-17T14:06:26;20.80;99.90
21759;DHT22;11041;50.854;20.580;2022-10-17T14:11:54;20.80;99.90
21759;DHT22;11041;50.854;20.580;2022-10-17T14:14:32;20.70;99.90
21759;DHT22;11041;50.854;20.580;2022-10-17T14:16:59;20.60;99.90
21759;DHT22;11041;50.854;20.580;2022-10-17T14:19:32;20.50;99.90
21759;DHT22;11041;50.854;20.580;2022-10-17T14:22:37;20.50;99.90
21759;DHT22;11041;50.854;20.580;2022-10-17T14:25:04;20.40;99.90
21759;DHT22;11041;50.854;20.580;2022-10-17T14:27:34;20.30;99.90
21759;DHT22;11041;50.854;20.580;2022-10-17T14:30:06;20.20;99.90
21759;DHT22;11041;50.854;20.580;2022-10-17T14:32:56;20.10;99.90
21759;DHT22;11041;50.854;20.580;2022-10-17T14:35:24;20.00;99.90
21759;DHT22;11041;50.854;20.580;2022-10-17T14:37:52;20.00;99.90
21759;DHT22;11041;50.854;20.580;2022-10-17T14:40:28;19.90;99.90
21759;DHT22;11041;50.854;20.580;2022-10-17T14:43:01;19.80;99.90
21759;DHT22;11041;50.854;20.580;2022-10-17T14:45:36;19.70;99.90
21759;DHT22;11041;50.854;20.580;2022-10-17T14:48:14;19.70;99.90
21759;DHT22;11041;50.854;20.580;2022-10-17T14:54:22;19.40;99.90
21759;DHT22;11041;50.854;20.580;2022-10-17T14:56:52;19.30;99.90
21759;DHT22;11041;50.854;20.580;2022-10-17T14:59:19;19.10;99.90
21759;DHT22;11041;50.854;20.580;2022-10-17T15:01:51;19.00;99.90
21759;DHT22;11041;50.854;20.580;2022-10-17T15:04:18;18.90;99.90
21759;DHT22;11041;50.854;20.580;2022-10-17T15:06:44;18.80;99.90
21759;DHT22;11041;50.854;20.580;2022-10-17T15:09:19;18.70;99.90
21759;DHT22;11041;50.854;20.580;2022-10-17T15:11:47;18.60;99.90
21759;DHT22;11041;50.854;20.580;2022-10-17T15:14:13;18.50;99.90
21759;DHT22;11041;50.854;20.580;2022-10-17T15:16:39;18.40;99.90
21759;DHT22;11041;50.854;20.580;2022-10-17T15:19:06;18.30;99.90
21759;DHT22;11041;50.854;20.580;2022-10-17T15:21:33;18.20;99.90
21759;DHT22;11041;50.854;20.580;2022-10-17T15:24:01;18.10;99.90
21759;DHT22;11041;50.854;20.580;2022-10-17T15:26:31;18.00;99.90
21759;DHT22;11041;50.854;20.580;2022-10-17T15:28:59;17.80;99.90
21759;DHT22;11041;50.854;20.580;2022-10-17T15:31:28;17.60;99.90
21759;DHT22;11041;50.854;20.580;2022-10-17T15:33:56;17.60;99.90
21759;DHT22;11041;50.854;20.580;2022-10-17T15:36:28;17.50;99.90
21759;DHT22;11041;50.854;20.580;2022-10-17T15:38:59;17.40;99.90
21759;DHT22;11041;50.854;20.580;2022-10-17T15:41:29;17.30;99.90
21759;DHT22;11041;50.854;20.580;2022-10-17T15:43:58;17.20;99.90
21759;DHT22;11041;50.854;20.580;2022-10-17T15:46:34;17.00;99.90
21759;DHT22;11041;50.854;20.580;2022-10-17T15:49:04;16.90;99.90
21759;DHT22;11041;50.854;20.580;2022-10-17T15:51:32;16.90;99.90
21759;DHT22;11041;50.854;20.580;2022-10-17T15:53:59;16.80;99.90
21759;DHT22;11041;50.854;20.580;2022-10-17T15:59:13;16.60;99.90
21759;DHT22;11041;50.854;20.580;2022-10-17T16:01:43;16.50;99.90
21759;DHT22;11041;50.854;20.580;2022-10-17T16:04:11;16.40;99.90
21759;DHT22;11041;50.854;20.580;2022-10-17T16:06:40;16.30;99.90
21759;DHT22;11041;50.854;20.580;2022-10-17T16:09:07;16.30;99.90
21759;DHT22;11041;50.854;20.580;2022-10-17T16:11:39;16.20;99.90
21759;DHT22;11041;50.854;20.580;2022-10-17T16:14:11;16.10;99.90
21759;DHT22;11041;50.854;20.580;2022-10-17T16:16:39;16.00;99.90
21759;DHT22;11041;50.854;20.580;2022-10-17T16:19:07;15.90;99.90
21759;DHT22;11041;50.854;20.580;2022-10-17T16:21:38;15.90;99.90
21759;DHT22;11041;50.854;20.580;2022-10-17T16:24:09;15.80;99.90
21759;DHT22;11041;50.854;20.580;2022-10-17T16:26:38;15.80;99.90
21759;DHT22;11041;50.854;20.580;2022-10-17T16:29:05;15.70;99.90
21759;DHT22;11041;50.854;20.580;2022-10-17T16:31:34;15.60;99.90
21759;DHT22;11041;50.854;20.580;2022-10-17T16:34:05;15.60;99.90
21759;DHT22;11041;50.854;20.580;2022-10-17T16:36:32;15.50;99.90
21759;DHT22;11041;50.854;20.580;2022-10-17T16:38:59;15.50;99.90
21759;DHT22;11041;50.854;20.580;2022-10-17T16:41:28;15.40;99.90
21759;DHT22;11041;50.854;20.580;2022-10-17T16:44:02;15.40;99.90
21759;DHT22;11041;50.854;20.580;2022-10-17T16:46:31;15.30;99.90
21759;DHT22;11041;50.854;20.580;2022-10-17T16:48:59;15.20;99.90
21759;DHT22;11041;50.854;20.580;2022-10-17T16:51:25;15.20;99.90
21759;DHT22;11041;50.854;20.580;2022-10-17T16:53:54;15.10;99.90
21759;DHT22;11041;50.854;20.580;2022-10-17T16:56:23;15.00;99.90
21759;DHT22;11041;50.854;20.580;2022-10-17T16:58:52;15.00;99.90
21759;DHT22;11041;50.854;20.580;2022-10-17T17:01:21;15.00;99.90
21759;DHT22;11041;50.854;20.580;2022-10-17T17:03:50;14.90;99.90
21759;DHT22;11041;50.854;20.580;2022-10-17T17:06:23;14.90;99.90
21759;DHT22;11041;50.854;20.580;2022-10-17T17:08:52;14.80;99.90
21759;DHT22;11041;50.854;20.580;2022-10-17T17:11:21;14.70;99.90
21759;DHT22;11041;50.854;20.580;2022-10-17T17:13:49;14.70;99.90
21759;DHT22;11041;50.854;20.580;2022-10-17T17:16:18;14.70;99.90
21759;DHT22;11041;50.854;20.580;2022-10-17T17:19:14;14.60;99.90
21759;DHT22;11041;50.854;20.580;2022-10-17T17:21:40;14.60;99.90
21759;DHT22;11041;50.854;20.580;2022-10-17T17:24:12;14.50;99.90
21759;DHT22;11041;50.854;20.580;2022-10-17T17:26:38;14.50;99.90
21759;DHT22;11041;50.854;20.580;2022-10-17T17:29:07;14.40;99.90
21759;DHT22;11041;50.854;20.580;2022-10-17T17:31:34;14.30;99.90
21759;DHT22;11041;50.854;20.580;2022-10-17T17:34:03;14.30;99.90
21759;DHT22;11041;50.854;20.580;2022-10-17T17:36:32;14.20;99.90
21759;DHT22;11041;50.854;20.580;2022-10-17T17:39:07;14.10;99.90
21759;DHT22;11041;50.854;20.580;2022-10-17T17:41:36;14.10;99.90
21759;DHT22;11041;50.854;20.580;2022-10-17T17:44:04;14.10;99.90
21759;DHT22;11041;50.854;20.580;2022-10-17T17:46:31;13.90;99.90
21759;DHT22;11041;50.854;20.580;2022-10-17T17:48:57;13.90;99.90
21759;DHT22;11041;50.854;20.580;2022-10-17T17:51:26;13.90;99.90
21759;DHT22;11041;50.854;20.580;2022-10-17T17:53:53;13.80;99.90
21759;DHT22;11041;50.854;20.580;2022-10-17T17:56:22;13.80;99.90
21759;DHT22;11041;50.854;20.580;2022-10-17T17:58:59;13.70;99.90